createdAt,value
2023-05-24T00:03:42.383Z,52991.81
2023-05-24T00:08:46.964Z,53005.81
2023-05-24T00:13:51.226Z,52981.81
2023-05-24T00:18:58.644Z,53003.81
2023-05-24T00:24:02.802Z,53011.81
2023-05-24T00:29:07.402Z,53017.81
2023-05-24T00:34:13.264Z,52951.81
2023-05-24T00:39:17.434Z,53011.81
2023-05-24T00:44:21.751Z,52983.81
2023-05-24T00:49:28.497Z,52943.81
2023-05-24T00:54:33.157Z,52919.78
2023-05-24T00:59:37.943Z,52957.81
2023-05-24T01:04:43.907Z,52845.78
2023-05-24T01:10:05.439Z,52803.78
2023-05-24T01:15:19.782Z,52829.78
2023-05-24T01:20:27.407Z,52745.75
2023-05-24T01:25:48.412Z,52829.78
2023-05-24T01:30:54.391Z,52825.78
2023-05-24T01:36:00.787Z,52809.78
2023-05-24T01:41:12.204Z,52779.78
2023-05-24T01:46:24.289Z,52757.75
2023-05-24T01:51:37.028Z,52765.75
2023-05-24T01:56:45.701Z,52775.75
2023-05-24T02:01:51.942Z,52771.75
2023-05-24T02:06:58.131Z,52705.75
2023-05-24T02:12:02.526Z,52779.78
2023-05-24T02:17:09.584Z,52787.78
2023-05-24T02:22:14.152Z,52841.78
2023-05-24T02:27:18.594Z,52817.78
2023-05-24T02:32:24.465Z,52791.78
2023-05-24T02:37:29.242Z,52753.75
2023-05-24T02:42:34.035Z,52799.78
2023-05-24T02:47:39.712Z,52779.78
2023-05-24T02:52:44.230Z,52763.75
2023-05-24T02:57:49.276Z,52725.75
2023-05-24T03:02:57.090Z,52753.75
2023-05-24T03:08:01.623Z,52777.75
2023-05-24T03:13:05.958Z,52769.75
2023-05-24T03:18:14.725Z,52733.75
2023-05-24T03:23:20.824Z,52707.75
2023-05-24T03:28:25.890Z,52707.75
2023-05-24T03:33:32.341Z,52711.75
2023-05-24T03:38:37.101Z,52723.75
2023-05-24T03:43:41.783Z,52685.75
2023-05-24T03:48:53.455Z,52629.75
2023-05-24T03:53:58.543Z,52669.75
2023-05-24T03:59:04.361Z,52713.75
2023-05-24T04:04:11.578Z,52691.75
2023-05-24T04:09:16.412Z,52727.75
2023-05-24T04:14:20.805Z,52739.75
2023-05-24T04:19:27.354Z,52681.75
2023-05-24T04:24:31.559Z,52725.75
2023-05-24T04:29:35.894Z,52741.75
2023-05-24T04:34:44.525Z,52661.75
2023-05-24T04:39:49.325Z,52719.75
2023-05-24T04:44:54.157Z,52679.75
2023-05-24T04:50:00.160Z,52675.75
2023-05-24T04:55:04.528Z,52677.75
2023-05-24T05:00:10.440Z,52669.75
2023-05-24T05:05:16.421Z,52641.75
2023-05-24T05:10:23.088Z,52563.72
2023-05-24T05:15:27.973Z,52525.72
2023-05-24T05:20:33.885Z,52513.72
2023-05-24T05:25:38.183Z,52501.72
2023-05-24T05:30:42.829Z,52529.72
2023-05-24T05:35:49.329Z,52485.72
2023-05-24T05:40:54.455Z,52505.72
2023-05-24T05:45:58.709Z,52453.72
2023-05-24T05:51:04.822Z,52435.72
2023-05-24T05:56:09.204Z,52435.72
2023-05-24T06:01:13.673Z,52429.72
2023-05-24T06:06:19.567Z,52377.72
2023-05-24T06:11:24.946Z,52333.72
2023-05-24T06:16:29.615Z,52357.72
2023-05-24T06:21:37.842Z,52313.72
2023-05-24T06:26:42.897Z,52349.72
2023-05-24T06:31:47.783Z,52327.72
2023-05-24T06:36:53.588Z,52349.72
2023-05-24T06:41:57.789Z,52359.72
2023-05-24T06:47:02.783Z,52353.72
2023-05-24T06:52:09.174Z,52337.72
2023-05-24T06:57:13.708Z,52299.72
2023-05-24T07:02:18.607Z,52299.72
2023-05-24T07:07:24.210Z,52305.72
2023-05-24T07:12:28.634Z,52323.72
2023-05-24T07:17:33.140Z,52257.72
2023-05-24T07:22:38.875Z,52281.72
2023-05-24T07:27:43.547Z,52255.72
2023-05-24T07:32:48.067Z,52227.72
2023-05-24T07:37:53.953Z,52265.72
2023-05-24T07:42:58.160Z,52229.72
2023-05-24T07:48:02.704Z,52109.69
2023-05-24T07:53:08.317Z,52125.69
2023-05-24T07:58:12.580Z,52091.69
2023-05-24T08:03:18.140Z,52149.69
2023-05-24T08:08:24.619Z,52131.69
2023-05-24T08:13:29.237Z,52145.69
2023-05-24T08:18:33.845Z,52103.69
2023-05-24T08:23:39.766Z,52119.69
2023-05-24T08:28:44.259Z,52141.69
2023-05-24T08:33:50.648Z,52125.69
2023-05-24T08:38:56.416Z,52045.69
2023-05-24T08:44:02.754Z,52057.69
2023-05-24T08:49:07.810Z,52015.69
2023-05-24T08:54:14.123Z,52095.69
2023-05-24T08:59:18.640Z,52029.69
2023-05-24T09:04:24.192Z,52049.69
2023-05-24T09:09:31.125Z,52013.69
2023-05-24T09:14:35.790Z,52011.69
2023-05-24T09:19:41.410Z,51965.69
2023-05-24T09:24:49.744Z,51983.69
2023-05-24T09:29:54.598Z,51967.69
2023-05-24T09:35:00.539Z,52023.69
2023-05-24T09:40:09.318Z,51981.69
2023-05-24T09:45:13.917Z,52045.69
2023-05-24T09:50:18.645Z,52013.69
2023-05-24T09:55:25.264Z,52051.69
2023-05-24T10:00:31.316Z,52053.69
2023-05-24T10:05:36.085Z,52077.69
2023-05-24T10:10:43.664Z,52063.69
2023-05-24T10:15:48.930Z,52075.69
2023-05-24T10:20:57.392Z,52001.69
2023-05-24T10:26:07.559Z,52045.69
2023-05-24T10:31:15.339Z,51929.72
2023-05-24T10:36:20.324Z,51915.72
2023-05-24T10:41:27.569Z,51883.72
2023-05-24T10:46:33.173Z,51865.72
2023-05-24T10:51:38.981Z,51919.69
2023-05-24T10:56:47.625Z,51923.72
2023-05-24T11:02:01.146Z,51901.72
2023-05-24T11:07:09.746Z,51831.72
2023-05-24T11:12:18.717Z,51941.72
2023-05-24T11:17:24.260Z,51919.69
2023-05-24T11:22:29.229Z,51969.69
2023-05-24T11:27:35.582Z,52049.69
2023-05-24T11:32:42.805Z,51901.72
2023-05-24T11:37:47.377Z,51949.69
2023-05-24T11:42:54.079Z,51981.69
2023-05-24T11:47:58.386Z,51959.72
2023-05-24T11:53:04.533Z,52029.69
2023-05-24T11:58:20.867Z,51981.69
2023-05-24T12:03:25.222Z,51861.72
2023-05-24T12:08:29.733Z,51913.72
2023-05-24T12:13:36.616Z,51941.72
2023-05-24T12:18:48.408Z,51989.69
2023-05-24T12:23:55.890Z,52133.69
2023-05-24T12:29:01.693Z,52113.69
2023-05-24T12:34:07.670Z,52213.72
2023-05-24T12:39:19.993Z,52039.69
2023-05-24T12:44:28.029Z,52089.69
2023-05-24T12:49:33.234Z,52023.69
2023-05-24T12:54:37.590Z,52003.69
2023-05-24T12:59:43.572Z,51925.72
2023-05-24T13:04:48.440Z,51791.72
2023-05-24T13:09:53.175Z,51829.72
2023-05-24T13:14:58.755Z,51901.72
2023-05-24T13:20:06.623Z,51989.69
2023-05-24T13:25:11.704Z,51985.69
2023-05-24T13:30:19.145Z,51945.69
2023-05-24T13:35:23.666Z,51943.72
2023-05-24T13:40:28.085Z,52043.69
2023-05-24T13:45:34.784Z,51965.69
2023-05-24T13:50:40.247Z,51965.69
2023-05-24T13:55:44.696Z,51921.72
2023-05-24T14:00:50.325Z,51907.72
2023-05-24T14:05:54.840Z,51921.72
2023-05-24T14:11:01.128Z,51829.72
2023-05-24T14:16:07.716Z,51863.72
2023-05-24T14:21:13.230Z,51819.72
2023-05-24T14:26:18.482Z,51801.72
2023-05-24T14:31:24.907Z,51821.72
2023-05-24T14:36:29.269Z,51731.72
2023-05-24T14:41:33.702Z,51779.72
2023-05-24T14:46:39.728Z,51769.72
2023-05-24T14:51:44.151Z,51799.72
2023-05-24T14:56:48.492Z,51773.72
2023-05-24T15:01:54.232Z,51859.72
2023-05-24T15:06:58.503Z,51837.72
2023-05-24T15:12:05.375Z,51929.72
2023-05-24T15:17:11.443Z,51885.72
2023-05-24T15:22:16.161Z,51835.72
2023-05-24T15:27:20.728Z,51729.72
2023-05-24T15:32:26.636Z,51765.72
2023-05-24T15:37:31.036Z,51799.72
2023-05-24T15:42:35.763Z,51801.72
2023-05-24T15:47:41.739Z,51859.72
2023-05-24T15:52:46.916Z,51881.72
2023-05-24T15:57:51.130Z,51867.72
2023-05-24T16:02:57.460Z,51873.72
2023-05-24T16:08:02.744Z,51803.72
2023-05-24T16:13:07.057Z,51835.72
2023-05-24T16:18:18.154Z,51761.72
2023-05-24T16:23:24.126Z,51761.72
2023-05-24T16:28:28.596Z,51781.72
2023-05-24T16:33:34.681Z,51769.72
2023-05-24T16:38:39.308Z,51779.72
2023-05-24T16:43:44.092Z,51657.72
2023-05-24T16:48:50.694Z,51693.72
2023-05-24T16:53:55.588Z,51661.72
2023-05-24T16:59:00.305Z,51709.72
2023-05-24T17:04:06.097Z,51727.72
2023-05-24T17:09:11.392Z,51673.72
2023-05-24T17:14:15.997Z,51691.72
2023-05-24T17:19:22.696Z,51735.72
2023-05-24T17:24:27.968Z,51737.72
2023-05-24T17:29:33.562Z,51723.72
2023-05-24T17:34:40.018Z,51713.72
2023-05-24T17:39:44.530Z,51713.72
2023-05-24T17:44:49.200Z,51679.72
2023-05-24T17:49:55.314Z,51689.72
2023-05-24T17:55:00.030Z,51677.72
2023-05-24T18:00:04.835Z,51677.72
2023-05-24T18:05:11.221Z,51709.72
2023-05-24T18:10:15.756Z,51711.72
2023-05-24T18:15:21.349Z,51663.72
2023-05-24T18:20:27.781Z,51655.72
2023-05-24T18:25:32.322Z,51675.72
2023-05-24T18:30:37.823Z,51637.72
2023-05-24T18:35:45.106Z,51607.72
2023-05-24T18:40:50.505Z,51673.72
2023-05-24T18:45:55.818Z,51689.72
2023-05-24T18:51:02.378Z,51639.72
2023-05-24T18:56:07.728Z,51711.72
2023-05-24T19:01:13.746Z,51689.72
2023-05-24T19:06:19.861Z,51689.72
2023-05-24T19:11:24.847Z,51669.72
2023-05-24T19:16:30.021Z,51657.72
2023-05-24T19:21:36.852Z,51649.72
2023-05-24T19:26:42.011Z,51653.72
2023-05-24T19:31:49.206Z,51627.72
2023-05-24T19:36:55.373Z,51617.72
2023-05-24T19:42:00.506Z,51635.72
2023-05-24T19:47:06.262Z,51617.72
2023-05-24T19:52:12.520Z,51609.72
2023-05-24T19:57:18.779Z,51589.72
2023-05-24T20:02:23.996Z,51615.72
2023-05-24T20:07:30.826Z,51585.72
2023-05-24T20:12:36.444Z,51627.72
2023-05-24T20:17:41.905Z,51601.72
2023-05-24T20:22:48.264Z,51603.72
2023-05-24T20:27:52.930Z,51587.72
2023-05-24T20:32:57.568Z,51595.72
2023-05-24T20:38:03.286Z,51589.72
2023-05-24T20:43:08.704Z,51553.72
2023-05-24T20:48:12.910Z,51535.75
2023-05-24T20:53:19.612Z,51543.75
2023-05-24T20:58:23.772Z,51545.75
2023-05-24T21:03:28.170Z,51565.72
2023-05-24T21:08:33.734Z,51553.72
2023-05-24T21:13:37.932Z,51597.72
2023-05-24T21:18:42.100Z,51541.75
2023-05-24T21:23:48.173Z,51613.72
2023-05-24T21:28:52.574Z,51603.72
2023-05-24T21:33:57.016Z,51603.72
2023-05-24T21:39:07.850Z,51609.72
2023-05-24T21:44:12.043Z,51633.72
2023-05-24T21:49:17.473Z,51621.72
2023-05-24T21:54:23.255Z,51591.72
2023-05-24T21:59:27.369Z,51551.72
2023-05-24T22:04:31.781Z,51597.72
2023-05-24T22:09:37.914Z,51545.75
2023-05-24T22:14:42.237Z,51533.75
2023-05-24T22:19:48.220Z,51593.72
2023-05-24T22:24:53.835Z,51593.72
2023-05-24T22:29:58.008Z,51509.75
2023-05-24T22:35:02.380Z,51529.75
2023-05-24T22:40:09.964Z,51539.75
2023-05-24T22:45:14.268Z,51469.75
2023-05-24T22:50:18.717Z,51503.75
2023-05-24T22:55:25.007Z,51527.75
2023-05-24T23:00:29.393Z,51487.75
2023-05-24T23:05:34.892Z,51523.75
2023-05-24T23:10:45.907Z,51533.75
2023-05-24T23:15:51.024Z,51523.75
2023-05-24T23:20:56.270Z,51513.75
2023-05-24T23:26:01.852Z,51511.75
2023-05-24T23:31:06.236Z,51489.75
2023-05-24T23:36:10.834Z,51461.75
2023-05-24T23:41:16.782Z,51439.75
2023-05-24T23:46:21.012Z,51471.75
2023-05-24T23:51:28.384Z,51507.75
2023-05-24T23:56:34.199Z,51485.75
